createdAt,value
2022-11-15T00:00:48.627Z,6.18
2022-11-15T00:03:20.258Z,17.98
2022-11-15T00:05:47.502Z,4.07
2022-11-15T00:08:14.496Z,21.02
2022-11-15T00:10:41.417Z,8.20
2022-11-15T00:13:08.837Z,8.55
2022-11-15T00:15:37.131Z,4.45
2022-11-15T00:18:04.572Z,7.70
2022-11-15T00:20:31.485Z,11.05
2022-11-15T00:22:59.340Z,6.00
2022-11-15T00:25:27.097Z,6.07
2022-11-15T00:27:57.181Z,8.25
2022-11-15T00:30:24.104Z,7.13
2022-11-15T00:32:50.979Z,4.35
2022-11-15T00:35:17.979Z,6.65
2022-11-15T00:37:44.481Z,6.95
2022-11-15T00:40:11.993Z,5.10
2022-11-15T00:42:38.440Z,5.03
2022-11-15T00:45:05.211Z,4.38
2022-11-15T00:47:33.514Z,6.57
2022-11-15T00:49:59.903Z,4.60
2022-11-15T00:52:26.542Z,5.05
2022-11-15T00:54:53.507Z,5.28
2022-11-15T00:57:19.905Z,4.53
2022-11-15T00:59:46.373Z,8.57
2022-11-15T01:02:13.111Z,5.97
2022-11-15T01:04:39.518Z,5.88
2022-11-15T01:07:06.129Z,8.27
2022-11-15T01:09:32.552Z,6.85
2022-11-15T01:11:59.108Z,7.53
2022-11-15T01:14:25.902Z,6.28
2022-11-15T01:16:52.333Z,7.00
2022-11-15T01:19:19.208Z,9.00
2022-11-15T01:21:45.578Z,5.78
2022-11-15T01:24:13.975Z,7.35
2022-11-15T01:26:40.746Z,5.25
2022-11-15T01:29:07.170Z,6.75
2022-11-15T01:31:33.622Z,7.13
2022-11-15T01:34:00.023Z,6.00
2022-11-15T01:36:26.422Z,6.88
2022-11-15T01:38:58.184Z,9.82
2022-11-15T01:41:30.265Z,5.32
2022-11-15T01:44:16.909Z,8.23
2022-11-15T01:46:48.126Z,5.88
2022-11-15T01:49:20.729Z,6.70
2022-11-15T01:51:47.466Z,6.43
2022-11-15T01:54:19.058Z,5.43
2022-11-15T01:56:57.240Z,8.10
2022-11-15T01:59:24.157Z,7.32
2022-11-15T02:01:50.880Z,7.05
2022-11-15T02:04:19.892Z,5.32
2022-11-15T02:06:47.997Z,9.75
2022-11-15T02:09:14.894Z,8.57
2022-11-15T02:11:42.265Z,4.90
2022-11-15T02:14:10.426Z,6.00
2022-11-15T02:16:53.136Z,5.13
2022-11-15T02:19:34.493Z,5.93
2022-11-15T02:22:28.629Z,10.68
2022-11-15T02:25:33.446Z,6.40
2022-11-15T02:28:13.545Z,6.63
2022-11-15T02:30:55.292Z,6.00
2022-11-15T02:33:42.728Z,7.97
2022-11-15T02:36:34.857Z,7.78
2022-11-15T02:39:10.254Z,6.18
2022-11-15T02:41:45.392Z,8.95
2022-11-15T02:44:23.390Z,5.45
2022-11-15T02:47:15.515Z,7.22
2022-11-15T02:49:47.704Z,6.75
2022-11-15T02:52:21.958Z,4.38
2022-11-15T02:55:00.194Z,4.20
2022-11-15T02:57:43.251Z,5.60
2022-11-15T03:00:19.264Z,6.17
2022-11-15T03:03:01.389Z,4.20
2022-11-15T03:05:54.641Z,5.50
2022-11-15T03:08:43.238Z,5.05
2022-11-15T03:11:12.999Z,5.20
2022-11-15T03:14:10.190Z,6.40
2022-11-15T03:16:47.689Z,6.18
2022-11-15T03:19:39.207Z,5.28
2022-11-15T03:22:11.024Z,5.70
2022-11-15T03:24:39.306Z,5.88
2022-11-15T03:27:09.021Z,10.00
2022-11-15T03:29:43.049Z,4.55
2022-11-15T03:32:21.887Z,5.47
2022-11-15T03:35:00.141Z,4.88
2022-11-15T03:37:35.869Z,7.43
2022-11-15T03:40:04.280Z,12.20
2022-11-15T03:42:43.713Z,5.55
2022-11-15T03:45:19.106Z,6.65
2022-11-15T03:47:54.721Z,9.85
2022-11-15T03:50:23.567Z,6.18
2022-11-15T03:52:50.994Z,8.77
2022-11-15T03:55:21.968Z,5.05
2022-11-15T03:57:54.452Z,7.10
2022-11-15T04:00:21.078Z,4.32
2022-11-15T04:02:47.803Z,7.68
2022-11-15T04:05:14.550Z,6.60
2022-11-15T04:07:41.425Z,6.78
2022-11-15T04:10:10.467Z,7.97
2022-11-15T04:12:40.390Z,5.75
2022-11-15T04:15:14.432Z,7.32
2022-11-15T04:17:48.692Z,3.90
2022-11-15T04:20:38.775Z,6.40
2022-11-15T04:23:29.824Z,6.78
2022-11-15T04:25:59.340Z,6.60
2022-11-15T04:28:25.916Z,12.23
2022-11-15T04:30:53.008Z,8.63
2022-11-15T04:33:19.468Z,4.55
2022-11-15T04:36:05.845Z,8.57
2022-11-15T04:38:32.305Z,4.78
2022-11-15T04:40:58.682Z,4.38
2022-11-15T04:43:25.354Z,6.65
2022-11-15T04:45:51.767Z,7.50
2022-11-15T04:48:18.186Z,9.02
2022-11-15T04:50:44.559Z,11.85
2022-11-15T04:53:10.976Z,9.25
2022-11-15T04:55:37.403Z,8.80
2022-11-15T04:58:03.968Z,10.95
2022-11-15T05:00:30.722Z,5.43
2022-11-15T05:03:17.110Z,8.52
2022-11-15T05:05:43.550Z,7.63
2022-11-15T05:08:09.970Z,6.00
2022-11-15T05:10:36.434Z,9.05
2022-11-15T05:13:02.837Z,15.40
2022-11-15T05:15:29.226Z,9.05
2022-11-15T05:18:01.371Z,7.53
2022-11-15T05:20:28.144Z,4.88
2022-11-15T05:22:56.424Z,8.63
2022-11-15T05:25:23.863Z,6.30
2022-11-15T05:27:50.323Z,8.95
2022-11-15T05:30:17.495Z,7.53
2022-11-15T05:32:44.694Z,6.82
2022-11-15T05:35:19.948Z,5.82
2022-11-15T05:37:46.456Z,8.70
2022-11-15T05:40:13.293Z,6.25
2022-11-15T05:42:39.809Z,7.10
2022-11-15T05:45:09.382Z,9.68
2022-11-15T05:47:37.909Z,5.32
2022-11-15T05:50:04.814Z,8.95
2022-11-15T05:52:35.711Z,6.63
2022-11-15T05:55:03.996Z,10.65
2022-11-15T05:57:30.422Z,6.18
2022-11-15T05:59:56.921Z,5.55
2022-11-15T06:02:23.412Z,9.35
2022-11-15T06:04:49.912Z,5.97
2022-11-15T06:07:16.462Z,7.75
2022-11-15T06:09:42.964Z,8.15
2022-11-15T06:12:09.321Z,11.95
2022-11-15T06:14:35.728Z,7.78
2022-11-15T06:17:06.047Z,9.00
2022-11-15T06:19:35.079Z,7.45
2022-11-15T06:22:01.537Z,6.88
2022-11-15T06:24:28.310Z,5.70
2022-11-15T06:26:55.066Z,4.50
2022-11-15T06:29:21.532Z,8.57
2022-11-15T06:31:47.938Z,10.27
2022-11-15T06:34:14.421Z,7.70
2022-11-15T06:36:40.842Z,7.05
2022-11-15T06:39:07.245Z,7.00
2022-11-15T06:41:36.978Z,6.70
2022-11-15T06:44:03.993Z,8.60
2022-11-15T06:46:30.562Z,6.95
2022-11-15T06:48:56.981Z,10.40
2022-11-15T06:51:23.362Z,12.60
2022-11-15T06:53:49.795Z,5.32
2022-11-15T06:56:16.188Z,7.20
2022-11-15T06:58:42.559Z,6.10
2022-11-15T07:01:11.989Z,7.38
2022-11-15T07:03:40.159Z,10.65
2022-11-15T07:06:07.932Z,7.65
2022-11-15T07:08:35.571Z,6.93
2022-11-15T07:11:04.075Z,10.68
2022-11-15T07:13:35.752Z,8.82
2022-11-15T07:16:08.149Z,7.75
2022-11-15T07:18:36.489Z,9.48
2022-11-15T07:21:04.865Z,6.82
2022-11-15T07:23:31.782Z,6.05
2022-11-15T07:25:59.574Z,19.98
2022-11-15T07:28:29.461Z,11.85
2022-11-15T07:30:56.077Z,11.70
2022-11-15T07:33:22.672Z,15.10
2022-11-15T07:35:49.429Z,7.97
2022-11-15T07:38:16.707Z,9.48
2022-11-15T07:40:43.145Z,7.95
2022-11-15T07:43:09.915Z,6.28
2022-11-15T07:45:44.761Z,13.18
2022-11-15T07:48:11.268Z,7.63
2022-11-15T07:50:41.186Z,9.35
2022-11-15T07:53:09.868Z,10.02
2022-11-15T07:55:36.734Z,9.27
2022-11-15T07:58:03.461Z,7.50
2022-11-15T08:00:30.212Z,9.25
2022-11-15T08:03:10.795Z,8.05
2022-11-15T08:05:38.951Z,8.85
2022-11-15T08:08:06.432Z,7.97
2022-11-15T08:10:37.727Z,5.90
2022-11-15T08:13:10.110Z,3.45
2022-11-15T08:15:37.892Z,7.00
2022-11-15T08:18:08.117Z,8.73
2022-11-15T08:20:35.099Z,18.67
2022-11-15T08:23:04.946Z,14.90
2022-11-15T08:25:33.181Z,19.55
2022-11-15T08:28:02.465Z,8.07
2022-11-15T08:30:30.766Z,6.90
2022-11-15T08:32:59.099Z,26.25
2022-11-15T08:35:29.070Z,20.23
2022-11-15T08:37:55.827Z,24.35
2022-11-15T08:40:22.494Z,60.33
2022-11-15T08:42:48.876Z,16.98
2022-11-15T08:45:16.021Z,20.67
2022-11-15T08:47:42.448Z,9.65
2022-11-15T08:50:09.326Z,9.25
2022-11-15T08:52:35.720Z,7.43
2022-11-15T08:55:02.187Z,8.05
2022-11-15T08:57:31.967Z,10.38
2022-11-15T08:59:58.603Z,24.45
2022-11-15T09:02:25.151Z,9.93
2022-11-15T09:04:51.826Z,7.85
2022-11-15T09:07:18.381Z,14.45
2022-11-15T09:09:44.995Z,32.03
2022-11-15T09:12:11.558Z,11.68
2022-11-15T09:14:38.212Z,14.43
2022-11-15T09:17:04.826Z,21.55
2022-11-15T09:19:31.347Z,10.00
2022-11-15T09:21:57.748Z,8.25
2022-11-15T09:24:24.221Z,11.40
2022-11-15T09:26:52.315Z,12.23
2022-11-15T09:29:19.421Z,16.42
2022-11-15T09:31:45.792Z,12.98
2022-11-15T09:34:12.724Z,10.23
2022-11-15T09:36:39.344Z,13.25
2022-11-15T09:39:05.759Z,13.05
2022-11-15T09:41:39.402Z,8.20
2022-11-15T09:44:33.876Z,5.38
2022-11-15T09:47:18.562Z,5.03
2022-11-15T09:49:45.106Z,5.00
2022-11-15T09:52:12.363Z,5.00
2022-11-15T09:54:57.410Z,4.45
2022-11-15T09:57:35.998Z,3.42
2022-11-15T10:03:14.791Z,4.07
2022-11-15T10:05:49.613Z,4.33
2022-11-15T10:08:35.634Z,5.85
2022-11-15T10:11:36.115Z,3.53
2022-11-15T10:13:58.511Z,3.60
2022-11-15T10:16:33.652Z,4.95
2022-11-15T10:19:36.148Z,4.03
2022-11-15T10:22:39.649Z,13.38
2022-11-15T10:25:09.056Z,3.55
2022-11-15T10:27:35.795Z,2.80
2022-11-15T10:30:04.105Z,5.50
2022-11-15T10:32:33.873Z,5.05
2022-11-15T10:35:00.355Z,5.32
2022-11-15T10:37:32.142Z,3.80
2022-11-15T10:40:26.291Z,4.95
2022-11-15T10:43:27.128Z,5.25
2022-11-15T10:45:53.847Z,4.35
2022-11-15T10:48:20.194Z,6.80
2022-11-15T10:50:48.599Z,6.18
2022-11-15T10:53:24.916Z,7.70
2022-11-15T10:55:57.898Z,3.17
2022-11-15T10:58:34.776Z,5.97
2022-11-15T11:01:20.109Z,4.88
2022-11-15T11:04:01.623Z,5.78
2022-11-15T11:06:29.033Z,3.72
2022-11-15T11:08:59.927Z,4.15
2022-11-15T11:11:46.244Z,6.68
2022-11-15T11:14:39.783Z,3.58
2022-11-15T11:17:11.946Z,4.13
2022-11-15T11:19:58.437Z,4.30
2022-11-15T11:22:55.977Z,5.78
2022-11-15T11:25:54.758Z,3.72
2022-11-15T11:28:45.671Z,5.50
2022-11-15T11:31:35.640Z,4.57
2022-11-15T11:34:16.453Z,5.72
2022-11-15T11:37:04.770Z,4.72
2022-11-15T11:39:39.020Z,5.70
2022-11-15T11:42:08.117Z,4.45
2022-11-15T11:45:01.566Z,3.58
2022-11-15T11:47:41.115Z,4.85
2022-11-15T11:50:21.041Z,5.70
2022-11-15T11:53:07.340Z,5.45
2022-11-15T11:55:39.669Z,3.97
2022-11-15T11:58:18.393Z,4.77
2022-11-15T12:00:53.164Z,4.75
2022-11-15T12:03:40.898Z,3.42
2022-11-15T12:06:20.903Z,5.68
2022-11-15T12:08:57.438Z,4.18
2022-11-15T12:11:39.615Z,4.50
2022-11-15T12:14:18.501Z,3.22
2022-11-15T12:16:44.938Z,3.38
2022-11-15T12:19:11.777Z,3.80
2022-11-15T12:22:01.940Z,3.72
2022-11-15T12:24:57.519Z,4.82
2022-11-15T12:27:45.548Z,5.35
2022-11-15T12:30:18.279Z,5.32
2022-11-15T12:32:53.740Z,3.45
2022-11-15T12:35:36.678Z,3.58
2022-11-15T12:38:03.174Z,2.58
2022-11-15T12:40:53.494Z,3.03
2022-11-15T12:43:40.791Z,4.32
2022-11-15T12:46:12.964Z,7.28
2022-11-15T12:48:39.490Z,4.30
2022-11-15T12:51:07.080Z,6.63
2022-11-15T12:53:34.934Z,4.72
2022-11-15T12:56:04.441Z,3.58
2022-11-15T12:58:50.708Z,5.45
2022-11-15T13:01:36.216Z,4.38
2022-11-15T13:04:28.032Z,3.15
2022-11-15T13:06:57.706Z,5.85
2022-11-15T13:09:29.969Z,3.72
2022-11-15T13:12:02.782Z,4.88
2022-11-15T13:14:38.173Z,3.65
2022-11-15T13:17:19.528Z,3.70
2022-11-15T13:19:47.591Z,4.80
2022-11-15T13:22:33.129Z,3.42
2022-11-15T13:25:02.279Z,7.03
2022-11-15T13:27:29.745Z,8.80
2022-11-15T13:29:56.360Z,4.50
2022-11-15T13:32:23.283Z,4.07
2022-11-15T13:34:53.717Z,3.65
2022-11-15T13:37:23.335Z,3.00
2022-11-15T13:39:50.644Z,9.27
2022-11-15T13:42:19.245Z,4.57
2022-11-15T13:44:57.630Z,3.55
2022-11-15T13:47:28.361Z,9.57
2022-11-15T13:49:57.439Z,6.32
2022-11-15T13:52:29.773Z,5.85
2022-11-15T13:55:04.710Z,4.45
2022-11-15T13:57:45.680Z,4.00
2022-11-15T14:00:41.159Z,6.82
2022-11-15T14:03:18.566Z,4.78
2022-11-15T14:06:03.207Z,2.90
2022-11-15T14:08:29.680Z,3.97
2022-11-15T14:11:18.321Z,4.32
2022-11-15T14:14:08.201Z,8.20
2022-11-15T14:16:40.354Z,6.05
2022-11-15T14:19:08.160Z,6.82
2022-11-15T14:21:34.700Z,6.90
2022-11-15T14:24:21.236Z,7.55
2022-11-15T14:26:48.427Z,5.20
2022-11-15T14:29:31.156Z,9.00
2022-11-15T14:32:28.249Z,7.20
2022-11-15T14:35:01.012Z,6.32
2022-11-15T14:37:32.379Z,10.67
2022-11-15T14:39:58.759Z,8.50
2022-11-15T14:42:25.952Z,12.10
2022-11-15T14:44:53.045Z,10.82
2022-11-15T14:47:19.954Z,15.43
2022-11-15T14:49:46.663Z,9.07
2022-11-15T14:52:35.336Z,8.32
2022-11-15T14:55:03.729Z,11.40
2022-11-15T14:57:31.018Z,9.48
2022-11-15T14:59:57.856Z,10.00
2022-11-15T15:02:26.213Z,10.23
2022-11-15T15:04:53.227Z,8.50
2022-11-15T15:07:20.227Z,12.55
2022-11-15T15:09:47.271Z,10.40
2022-11-15T15:12:22.913Z,6.85
2022-11-15T15:14:51.358Z,8.43
2022-11-15T15:17:18.429Z,10.75
2022-11-15T15:19:44.965Z,12.18
2022-11-15T15:22:17.477Z,11.05
2022-11-15T15:24:45.524Z,14.48
2022-11-15T15:27:12.757Z,19.02
2022-11-15T15:29:39.632Z,14.63
2022-11-15T15:32:06.465Z,16.42
2022-11-15T15:34:33.497Z,13.50
2022-11-15T15:37:24.685Z,9.95
2022-11-15T15:39:57.052Z,10.40
2022-11-15T15:42:24.256Z,14.02
2022-11-15T15:44:51.653Z,11.27
2022-11-15T15:47:21.300Z,10.35
2022-11-15T15:49:48.953Z,8.32
2022-11-15T15:52:15.656Z,8.93
2022-11-15T15:54:42.449Z,8.85
2022-11-15T15:57:12.332Z,9.18
2022-11-15T15:59:38.704Z,16.10
2022-11-15T16:02:05.577Z,10.93
2022-11-15T16:04:31.997Z,11.60
2022-11-15T16:07:01.871Z,15.20
2022-11-15T16:09:47.142Z,13.43
2022-11-15T16:12:13.553Z,12.27
2022-11-15T16:14:40.177Z,13.15
2022-11-15T16:17:06.588Z,10.35
2022-11-15T16:19:36.425Z,13.85
2022-11-15T16:22:03.179Z,12.27
2022-11-15T16:24:29.569Z,10.27
2022-11-15T16:26:56.078Z,11.02
2022-11-15T16:29:23.807Z,14.15
2022-11-15T16:31:50.290Z,15.88
2022-11-15T16:34:17.211Z,15.90
2022-11-15T16:36:43.682Z,16.90
2022-11-15T16:39:19.337Z,20.52
2022-11-15T16:41:49.150Z,17.42
2022-11-15T16:44:15.693Z,12.88
2022-11-15T16:46:51.771Z,16.17
2022-11-15T16:49:20.083Z,17.98
2022-11-15T16:51:47.960Z,19.52
2022-11-15T16:54:14.868Z,18.05
2022-11-15T16:56:41.738Z,15.05
2022-11-15T16:59:14.742Z,16.83
2022-11-15T17:01:46.750Z,10.25
2022-11-15T17:04:13.855Z,13.27
2022-11-15T17:06:41.462Z,13.75
2022-11-15T17:09:17.032Z,15.02
2022-11-15T17:11:43.707Z,17.50
2022-11-15T17:14:11.241Z,17.30
2022-11-15T17:16:42.177Z,34.70
2022-11-15T17:19:14.214Z,22.00
2022-11-15T17:21:41.171Z,15.00
2022-11-15T17:24:07.691Z,12.45
2022-11-15T17:26:39.191Z,15.98
2022-11-15T17:29:09.756Z,16.23
2022-11-15T17:31:37.095Z,16.80
2022-11-15T17:34:05.414Z,24.48
2022-11-15T17:36:32.630Z,20.58
2022-11-15T17:38:59.994Z,20.92
2022-11-15T17:41:28.051Z,20.95
2022-11-15T17:43:57.998Z,17.90
2022-11-15T17:46:24.604Z,16.40
2022-11-15T17:48:51.165Z,16.92
2022-11-15T17:51:18.845Z,17.77
2022-11-15T17:53:47.242Z,15.35
2022-11-15T17:56:16.418Z,11.45
2022-11-15T17:58:48.266Z,12.27
2022-11-15T18:01:25.044Z,16.42
2022-11-15T18:03:51.958Z,15.63
2022-11-15T18:06:20.018Z,12.95
2022-11-15T18:08:47.869Z,17.13
2022-11-15T18:11:17.506Z,13.55
2022-11-15T18:13:50.904Z,19.48
2022-11-15T18:16:21.111Z,15.35
2022-11-15T18:18:48.260Z,21.58
2022-11-15T18:21:19.338Z,30.48
2022-11-15T18:23:46.420Z,18.00
2022-11-15T18:26:17.547Z,18.20
2022-11-15T18:28:46.323Z,21.92
2022-11-15T18:31:21.283Z,19.55
2022-11-15T18:33:49.709Z,16.42
2022-11-15T18:36:19.415Z,21.85
2022-11-15T18:38:46.386Z,19.65
2022-11-15T18:41:20.494Z,20.63
2022-11-15T18:43:50.906Z,20.05
2022-11-15T18:46:20.310Z,18.27
2022-11-15T18:48:50.394Z,18.55
2022-11-15T18:51:22.752Z,22.60
2022-11-15T18:53:49.420Z,16.17
2022-11-15T18:56:18.369Z,19.88
2022-11-15T18:58:47.262Z,23.95
2022-11-15T19:01:18.668Z,18.48
2022-11-15T19:03:48.602Z,25.95
2022-11-15T19:06:20.741Z,20.98
2022-11-15T19:08:49.424Z,24.40
2022-11-15T19:11:17.256Z,21.40
2022-11-15T19:13:44.670Z,23.10
2022-11-15T19:16:13.199Z,22.15
2022-11-15T19:18:40.123Z,14.40
2022-11-15T19:21:13.405Z,13.73
2022-11-15T19:23:42.802Z,17.30
2022-11-15T19:26:14.153Z,15.00
2022-11-15T19:28:41.588Z,11.77
2022-11-15T19:31:15.752Z,14.88
2022-11-15T19:33:44.118Z,15.52
2022-11-15T19:36:17.556Z,16.70
2022-11-15T19:38:44.119Z,17.85
2022-11-15T19:41:16.246Z,21.48
2022-11-15T19:43:43.233Z,13.40
2022-11-15T19:46:12.241Z,11.45
2022-11-15T19:48:39.070Z,9.30
2022-11-15T19:51:08.214Z,10.02
2022-11-15T19:53:35.578Z,14.25
2022-11-15T19:56:07.511Z,11.77
2022-11-15T19:58:34.676Z,14.57
2022-11-15T20:01:03.132Z,15.68
2022-11-15T20:03:30.941Z,20.88
2022-11-15T20:06:05.464Z,13.40
2022-11-15T20:08:32.663Z,14.18
2022-11-15T20:11:00.809Z,14.73
2022-11-15T20:13:27.986Z,12.93
2022-11-15T20:15:57.879Z,17.95
2022-11-15T20:18:26.097Z,27.88
2022-11-15T20:20:53.174Z,22.42
2022-11-15T20:23:19.610Z,21.27
2022-11-15T20:25:47.494Z,19.23
2022-11-15T20:28:22.861Z,17.75
2022-11-15T20:30:53.036Z,18.30
2022-11-15T20:33:19.885Z,17.30
2022-11-15T20:35:46.376Z,15.73
2022-11-15T20:38:13.009Z,17.25
2022-11-15T20:40:40.082Z,16.48
2022-11-15T20:43:10.853Z,11.85
2022-11-15T20:45:38.542Z,12.73
2022-11-15T20:48:05.280Z,17.45
2022-11-15T20:50:46.659Z,14.65
2022-11-15T20:53:15.650Z,17.88
2022-11-15T20:55:44.143Z,15.68
2022-11-15T20:58:11.393Z,18.17
2022-11-15T21:00:38.191Z,14.25
2022-11-15T21:03:08.581Z,16.58
2022-11-15T21:05:38.178Z,16.63
2022-11-15T21:08:04.855Z,15.18
2022-11-15T21:10:50.582Z,17.50
2022-11-15T21:13:17.081Z,16.92
2022-11-15T21:15:43.614Z,17.40
2022-11-15T21:18:10.185Z,20.23
2022-11-15T21:20:36.618Z,16.25
2022-11-15T21:23:05.484Z,17.40
2022-11-15T21:25:35.515Z,20.08
2022-11-15T21:28:02.074Z,19.00
2022-11-15T21:30:28.492Z,23.15
2022-11-15T21:32:54.972Z,21.92
2022-11-15T21:35:21.478Z,22.98
2022-11-15T21:37:53.319Z,17.17
2022-11-15T21:40:22.689Z,20.92
2022-11-15T21:42:49.068Z,24.65
2022-11-15T21:45:15.568Z,18.25
2022-11-15T21:47:45.807Z,15.95
2022-11-15T21:50:13.794Z,19.70
2022-11-15T21:52:40.720Z,18.45
2022-11-15T21:55:07.984Z,17.10
2022-11-15T21:57:34.471Z,19.20
2022-11-15T22:00:19.420Z,17.80
2022-11-15T22:02:45.803Z,19.63
2022-11-15T22:05:12.177Z,20.17
2022-11-15T22:07:38.828Z,18.48
2022-11-15T22:10:05.883Z,20.58
2022-11-15T22:12:32.380Z,16.15
2022-11-15T22:14:58.841Z,15.43
2022-11-15T22:17:45.286Z,23.15
2022-11-15T22:20:37.783Z,15.02
2022-11-15T22:22:59.575Z,18.55
2022-11-15T22:25:26.427Z,19.67
2022-11-15T22:27:53.296Z,14.93
2022-11-15T22:30:19.853Z,16.77
2022-11-15T22:32:46.357Z,23.98
2022-11-15T22:35:13.040Z,19.95
2022-11-15T22:37:39.776Z,15.32
2022-11-15T22:40:06.819Z,19.90
2022-11-15T22:42:33.435Z,16.83
2022-11-15T22:44:59.850Z,18.85
2022-11-15T22:47:26.315Z,21.23
2022-11-15T22:49:52.702Z,19.23
2022-11-15T22:52:19.224Z,22.27
2022-11-15T22:54:45.798Z,18.55
2022-11-15T22:57:12.211Z,16.85
2022-11-15T22:59:38.712Z,14.15
2022-11-15T23:02:05.096Z,16.92
2022-11-15T23:04:31.489Z,14.77
2022-11-15T23:06:58.035Z,18.27
2022-11-15T23:09:24.554Z,17.23
2022-11-15T23:12:09.766Z,14.43
2022-11-15T23:14:36.303Z,16.40
2022-11-15T23:17:02.789Z,16.92
2022-11-15T23:19:29.501Z,21.55
2022-11-15T23:22:14.705Z,18.83
2022-11-15T23:24:41.222Z,16.70
2022-11-15T23:27:08.465Z,15.63
2022-11-15T23:29:56.730Z,21.50
2022-11-15T23:32:41.868Z,12.05
2022-11-15T23:35:08.633Z,17.80
2022-11-15T23:37:35.189Z,16.25
2022-11-15T23:40:01.650Z,19.27
2022-11-15T23:42:28.416Z,14.88
2022-11-15T23:44:54.789Z,14.48
2022-11-15T23:47:21.178Z,13.73
2022-11-15T23:49:47.637Z,17.85
2022-11-15T23:52:15.556Z,12.25
2022-11-15T23:54:42.297Z,16.17
2022-11-15T23:57:11.860Z,14.23
2022-11-15T23:59:39.987Z,12.30
